sensor_id;sensor_type;location;lat;lon;timestamp;pressure;altitude;pressure_sealevel;temperature;humidity
57656;BME280;43482;53.334;6.744;2022-12-18T00:00:39;102891.31;;;-4.20;100.00
57656;BME280;43482;53.334;6.744;2022-12-18T00:03:04;102892.16;;;-4.23;100.00
57656;BME280;43482;53.334;6.744;2022-12-18T00:05:29;102874.13;;;-4.21;100.00
57656;BME280;43482;53.334;6.744;2022-12-18T00:07:55;102874.97;;;-4.27;100.00
57656;BME280;43482;53.334;6.744;2022-12-18T00:10:20;102873.31;;;-4.37;100.00
57656;BME280;43482;53.334;6.744;2022-12-18T00:12:45;102875.03;;;-4.42;100.00
57656;BME280;43482;53.334;6.744;2022-12-18T00:15:10;102883.63;;;-4.31;100.00
57656;BME280;43482;53.334;6.744;2022-12-18T00:17:35;102889.59;;;-4.24;100.00
57656;BME280;43482;53.334;6.744;2022-12-18T00:20:01;102888.75;;;-4.36;100.00
57656;BME280;43482;53.334;6.744;2022-12-18T00:22:26;102891.31;;;-4.29;100.00
57656;BME280;43482;53.334;6.744;2022-12-18T00:24:52;102896.50;;;-4.31;100.00
57656;BME280;43482;53.334;6.744;2022-12-18T00:27:17;102897.38;;;-4.35;100.00
57656;BME280;43482;53.334;6.744;2022-12-18T00:29:42;102900.75;;;-4.27;100.00
57656;BME280;43482;53.334;6.744;2022-12-18T00:32:07;102902.47;;;-4.23;100.00
57656;BME280;43482;53.334;6.744;2022-12-18T00:34:33;102893.03;;;-4.31;100.00
57656;BME280;43482;53.334;6.744;2022-12-18T00:36:58;102899.06;;;-4.36;100.00
57656;BME280;43482;53.334;6.744;2022-12-18T00:39:23;102881.91;;;-4.35;100.00
57656;BME280;43482;53.334;6.744;2022-12-18T00:41:48;102881.88;;;-4.38;100.00
57656;BME280;43482;53.334;6.744;2022-12-18T00:44:32;102886.19;;;-4.39;100.00
57656;BME280;43482;53.334;6.744;2022-12-18T00:46:57;102893.06;;;-4.41;100.00
57656;BME280;43482;53.334;6.744;2022-12-18T00:49:23;102898.25;;;-4.48;100.00
57656;BME280;43482;53.334;6.744;2022-12-18T00:51:48;102901.69;;;-4.54;100.00
57656;BME280;43482;53.334;6.744;2022-12-18T00:54:13;102893.97;;;-4.46;100.00
57656;BME280;43482;53.334;6.744;2022-12-18T00:56:39;102891.38;;;-4.54;100.00
57656;BME280;43482;53.334;6.744;2022-12-18T00:59:04;102882.78;;;-4.50;100.00
57656;BME280;43482;53.334;6.744;2022-12-18T01:04:05;102889.66;;;-4.40;100.00
57656;BME280;43482;53.334;6.744;2022-12-18T01:06:30;102882.78;;;-4.48;100.00
57656;BME280;43482;53.334;6.744;2022-12-18T01:08:56;102881.91;;;-4.41;100.00
57656;BME280;43482;53.334;6.744;2022-12-18T01:11:21;102890.47;;;-4.31;100.00
57656;BME280;43482;53.334;6.744;2022-12-18T01:13:47;102893.06;;;-4.36;100.00
57656;BME280;43482;53.334;6.744;2022-12-18T01:16:13;102899.09;;;-4.37;100.00
57656;BME280;43482;53.334;6.744;2022-12-18T01:18:38;102905.16;;;-4.55;100.00
57656;BME280;43482;53.334;6.744;2022-12-18T01:21:07;102899.94;;;-4.41;100.00
57656;BME280;43482;53.334;6.744;2022-12-18T01:23:33;102905.97;;;-4.45;100.00
57656;BME280;43482;53.334;6.744;2022-12-18T01:26:03;102916.25;;;-4.42;100.00
57656;BME280;43482;53.334;6.744;2022-12-18T01:28:29;102907.69;;;-4.44;100.00
57656;BME280;43482;53.334;6.744;2022-12-18T01:30:54;102903.41;;;-4.55;100.00
57656;BME280;43482;53.334;6.744;2022-12-18T01:33:19;102915.44;;;-4.50;100.00
57656;BME280;43482;53.334;6.744;2022-12-18T01:35:44;102912.84;;;-4.47;100.00
57656;BME280;43482;53.334;6.744;2022-12-18T01:38:09;102908.56;;;-4.51;100.00
57656;BME280;43482;53.334;6.744;2022-12-18T01:40:35;102920.59;;;-4.55;100.00
57656;BME280;43482;53.334;6.744;2022-12-18T01:43:00;102915.44;;;-4.50;100.00
57656;BME280;43482;53.334;6.744;2022-12-18T01:45:27;102916.31;;;-4.48;100.00
57656;BME280;43482;53.334;6.744;2022-12-18T01:52:43;102924.91;;;-4.52;100.00
57656;BME280;43482;53.334;6.744;2022-12-18T01:55:10;102912.88;;;-4.57;100.00
57656;BME280;43482;53.334;6.744;2022-12-18T01:57:36;102922.31;;;-4.59;100.00
57656;BME280;43482;53.334;6.744;2022-12-18T02:00:10;102925.75;;;-4.57;100.00
57656;BME280;43482;53.334;6.744;2022-12-18T02:02:35;102923.16;;;-4.47;100.00
57656;BME280;43482;53.334;6.744;2022-12-18T02:05:01;102872.53;;;-4.74;100.00
57656;BME280;43482;53.334;6.744;2022-12-18T02:10:16;102924.88;;;-4.46;100.00
57656;BME280;43482;53.334;6.744;2022-12-18T02:12:45;102925.75;;;-4.57;100.00
57656;BME280;43482;53.334;6.744;2022-12-18T02:15:18;102912.03;;;-4.69;100.00
57656;BME280;43482;53.334;6.744;2022-12-18T02:17:50;102912.03;;;-4.76;100.00
57656;BME280;43482;53.334;6.744;2022-12-18T02:20:22;102913.75;;;-4.81;100.00
57656;BME280;43482;53.334;6.744;2022-12-18T02:27:48;102894.00;;;-5.09;100.00
57656;BME280;43482;53.334;6.744;2022-12-18T02:30:14;102894.00;;;-5.11;100.00
57656;BME280;43482;53.334;6.744;2022-12-18T02:32:41;102899.16;;;-5.11;100.00
57656;BME280;43482;53.334;6.744;2022-12-18T02:35:08;102887.97;;;-5.10;100.00
57656;BME280;43482;53.334;6.744;2022-12-18T02:37:35;102841.63;;;-5.41;100.00
57656;BME280;43482;53.334;6.744;2022-12-18T02:40:04;102890.56;;;-5.16;100.00
57656;BME280;43482;53.334;6.744;2022-12-18T02:42:29;102889.69;;;-5.27;100.00
57656;BME280;43482;53.334;6.744;2022-12-18T02:44:55;102876.81;;;-5.37;100.00
57656;BME280;43482;53.334;6.744;2022-12-18T02:47:22;102875.97;;;-5.42;100.00
57656;BME280;43482;53.334;6.744;2022-12-18T02:52:39;102881.06;;;-5.49;100.00
57656;BME280;43482;53.334;6.744;2022-12-18T03:05:08;102878.47;;;-5.66;100.00
57656;BME280;43482;53.334;6.744;2022-12-18T03:08:19;102879.31;;;-5.67;100.00
57656;BME280;43482;53.334;6.744;2022-12-18T03:10:25;102884.44;;;-5.75;100.00
57656;BME280;43482;53.334;6.744;2022-12-18T03:12:52;102890.44;;;-5.78;100.00
57656;BME280;43482;53.334;6.744;2022-12-18T03:15:19;102887.84;;;-5.78;100.00
57656;BME280;43482;53.334;6.744;2022-12-18T03:17:51;102893.03;;;-5.74;100.00
57656;BME280;43482;53.334;6.744;2022-12-18T03:20:18;102892.13;;;-5.80;100.00
57656;BME280;43482;53.334;6.744;2022-12-18T03:22:45;102897.34;;;-5.70;100.00
57656;BME280;43482;53.334;6.744;2022-12-18T03:25:13;102899.06;;;-5.68;100.00
57656;BME280;43482;53.334;6.744;2022-12-18T03:27:40;102893.00;;;-5.73;100.00
57656;BME280;43482;53.334;6.744;2022-12-18T03:30:10;102883.56;;;-5.75;100.00
57656;BME280;43482;53.334;6.744;2022-12-18T03:32:44;102880.16;;;-5.78;100.00
57656;BME280;43482;53.334;6.744;2022-12-18T03:35:13;102877.59;;;-5.74;100.00
57656;BME280;43482;53.334;6.744;2022-12-18T03:37:39;102869.84;;;-5.78;100.00
57656;BME280;43482;53.334;6.744;2022-12-18T03:40:04;102875.03;;;-5.74;100.00
57656;BME280;43482;53.334;6.744;2022-12-18T03:42:51;102875.03;;;-5.74;100.00
57656;BME280;43482;53.334;6.744;2022-12-18T03:47:58;102871.59;;;-5.76;100.00
57656;BME280;43482;53.334;6.744;2022-12-18T03:53:43;102873.28;;;-5.79;100.00
57656;BME280;43482;53.334;6.744;2022-12-18T03:55:47;102868.16;;;-5.75;100.00
57656;BME280;43482;53.334;6.744;2022-12-18T03:58:13;102869.03;;;-5.76;100.00
57656;BME280;43482;53.334;6.744;2022-12-18T04:00:41;102853.56;;;-5.84;100.00
57656;BME280;43482;53.334;6.744;2022-12-18T04:03:07;102857.84;;;-5.85;100.00
57656;BME280;43482;53.334;6.744;2022-12-18T04:05:33;102851.84;;;-5.90;100.00
57656;BME280;43482;53.334;6.744;2022-12-18T04:07:59;102858.69;;;-5.95;100.00
57656;BME280;43482;53.334;6.744;2022-12-18T04:10:26;102862.13;;;-5.97;100.00
57656;BME280;43482;53.334;6.744;2022-12-18T04:12:51;102858.69;;;-5.95;100.00
57656;BME280;43482;53.334;6.744;2022-12-18T04:15:20;102859.56;;;-5.90;100.00
57656;BME280;43482;53.334;6.744;2022-12-18T04:17:48;102874.09;;;-5.86;100.00
57656;BME280;43482;53.334;6.744;2022-12-18T04:20:14;102868.97;;;-5.86;100.00
57656;BME280;43482;53.334;6.744;2022-12-18T04:22:39;102869.84;;;-5.90;100.00
57656;BME280;43482;53.334;6.744;2022-12-18T04:25:04;102852.69;;;-5.94;100.00
57656;BME280;43482;53.334;6.744;2022-12-18T04:27:29;102867.22;;;-5.93;100.00
57656;BME280;43482;53.334;6.744;2022-12-18T04:29:55;102862.13;;;-5.96;100.00
57656;BME280;43482;53.334;6.744;2022-12-18T04:32:20;102866.38;;;-6.00;100.00
57656;BME280;43482;53.334;6.744;2022-12-18T04:34:45;102869.81;;;-6.02;100.00
57656;BME280;43482;53.334;6.744;2022-12-18T04:37:10;102866.38;;;-6.07;100.00
57656;BME280;43482;53.334;6.744;2022-12-18T04:39:36;102867.25;;;-6.05;100.00
57656;BME280;43482;53.334;6.744;2022-12-18T04:42:01;102874.09;;;-6.07;100.00
57656;BME280;43482;53.334;6.744;2022-12-18T04:44:26;102864.69;;;-6.05;100.00
57656;BME280;43482;53.334;6.744;2022-12-18T04:46:52;102868.06;;;-6.12;100.00
57656;BME280;43482;53.334;6.744;2022-12-18T04:49:17;102867.19;;;-6.10;100.00
57656;BME280;43482;53.334;6.744;2022-12-18T04:51:42;102869.78;;;-6.16;100.00
57656;BME280;43482;53.334;6.744;2022-12-18T04:54:07;102856.06;;;-6.18;100.00
57656;BME280;43482;53.334;6.744;2022-12-18T04:56:32;102856.03;;;-6.16;100.00
57656;BME280;43482;53.334;6.744;2022-12-18T04:58:58;102857.78;;;-6.15;100.00
57656;BME280;43482;53.334;6.744;2022-12-18T05:01:23;102863.75;;;-6.16;100.00
57656;BME280;43482;53.334;6.744;2022-12-18T05:03:48;102867.16;;;-6.21;100.00
57656;BME280;43482;53.334;6.744;2022-12-18T05:06:14;102859.44;;;-6.21;100.00
57656;BME280;43482;53.334;6.744;2022-12-18T05:08:39;102862.88;;;-6.18;100.00
57656;BME280;43482;53.334;6.744;2022-12-18T05:11:06;102873.16;;;-6.22;100.00
57656;BME280;43482;53.334;6.744;2022-12-18T05:13:32;102883.44;;;-6.22;100.00
57656;BME280;43482;53.334;6.744;2022-12-18T05:15:57;102880.91;;;-6.15;100.00
57656;BME280;43482;53.334;6.744;2022-12-18T05:18:23;102880.06;;;-6.11;100.00
57656;BME280;43482;53.334;6.744;2022-12-18T05:20:49;102873.19;;;-6.15;100.00
57656;BME280;43482;53.334;6.744;2022-12-18T05:23:14;102873.16;;;-6.22;100.00
57656;BME280;43482;53.334;6.744;2022-12-18T05:25:40;102867.16;;;-6.24;100.00
57656;BME280;43482;53.334;6.744;2022-12-18T05:28:05;102867.16;;;-6.22;100.00
57656;BME280;43482;53.334;6.744;2022-12-18T05:30:30;102867.16;;;-6.21;100.00
57656;BME280;43482;53.334;6.744;2022-12-18T05:32:55;102865.44;;;-6.26;100.00
57656;BME280;43482;53.334;6.744;2022-12-18T05:35:20;102868.84;;;-6.29;100.00
57656;BME280;43482;53.334;6.744;2022-12-18T05:37:46;102864.56;;;-6.27;100.00
57656;BME280;43482;53.334;6.744;2022-12-18T05:40:11;102863.69;;;-6.33;100.00
57656;BME280;43482;53.334;6.744;2022-12-18T05:42:36;102861.09;;;-6.32;100.00
57656;BME280;43482;53.334;6.744;2022-12-18T05:45:02;102864.53;;;-6.37;100.00
57656;BME280;43482;53.334;6.744;2022-12-18T05:47:28;102866.19;;;-6.41;100.00
57656;BME280;43482;53.334;6.744;2022-12-18T05:49:53;102871.34;;;-6.38;100.00
57656;BME280;43482;53.334;6.744;2022-12-18T05:52:19;102869.66;;;-6.36;100.00
57656;BME280;43482;53.334;6.744;2022-12-18T05:54:44;102879.06;;;-6.36;100.00
57656;BME280;43482;53.334;6.744;2022-12-18T05:57:09;102873.09;;;-6.37;100.00
57656;BME280;43482;53.334;6.744;2022-12-18T05:59:35;102873.94;;;-6.35;100.00
57656;BME280;43482;53.334;6.744;2022-12-18T06:02:00;102884.22;;;-6.35;100.00
57656;BME280;43482;53.334;6.744;2022-12-18T06:04:26;102879.06;;;-6.39;100.00
57656;BME280;43482;53.334;6.744;2022-12-18T06:06:52;102890.22;;;-6.37;100.00
57656;BME280;43482;53.334;6.744;2022-12-18T06:09:18;102889.34;;;-6.36;100.00
57656;BME280;43482;53.334;6.744;2022-12-18T06:11:43;102888.44;;;-6.46;100.00
57656;BME280;43482;53.334;6.744;2022-12-18T06:14:08;102903.81;;;-6.49;100.00
57656;BME280;43482;53.334;6.744;2022-12-18T06:16:34;102897.00;;;-6.47;100.00
57656;BME280;43482;53.334;6.744;2022-12-18T06:19:01;102899.56;;;-6.50;100.00
57656;BME280;43482;53.334;6.744;2022-12-18T06:21:27;102905.59;;;-6.44;100.00
57656;BME280;43482;53.334;6.744;2022-12-18T06:23:53;102903.00;;;-6.48;100.00
57656;BME280;43482;53.334;6.744;2022-12-18T06:26:18;102905.53;;;-6.51;100.00
57656;BME280;43482;53.334;6.744;2022-12-18T06:28:43;102919.25;;;-6.49;100.00
57656;BME280;43482;53.334;6.744;2022-12-18T06:31:09;102905.53;;;-6.51;100.00
57656;BME280;43482;53.334;6.744;2022-12-18T06:33:34;102906.38;;;-6.54;100.00
57656;BME280;43482;53.334;6.744;2022-12-18T06:36:10;102903.81;;;-6.52;100.00
57656;BME280;43482;53.334;6.744;2022-12-18T06:38:37;102895.25;;;-6.54;100.00
57656;BME280;43482;53.334;6.744;2022-12-18T06:41:16;102878.97;;;-6.53;100.00
57656;BME280;43482;53.334;6.744;2022-12-18T06:43:42;102873.84;;;-6.52;100.00
57656;BME280;43482;53.334;6.744;2022-12-18T06:46:07;102879.00;;;-6.50;100.00
57656;BME280;43482;53.334;6.744;2022-12-18T06:48:33;102883.25;;;-6.54;100.00
57656;BME280;43482;53.334;6.744;2022-12-18T06:50:58;102870.44;;;-6.52;100.00
57656;BME280;43482;53.334;6.744;2022-12-18T06:53:24;102855.84;;;-6.56;100.00
57656;BME280;43482;53.334;6.744;2022-12-18T06:55:49;102857.53;;;-6.55;100.00
57656;BME280;43482;53.334;6.744;2022-12-18T06:58:14;102859.28;;;-6.57;100.00
57656;BME280;43482;53.334;6.744;2022-12-18T07:00:40;102860.13;;;-6.57;100.00
57656;BME280;43482;53.334;6.744;2022-12-18T07:03:05;102865.22;;;-6.60;100.00
57656;BME280;43482;53.334;6.744;2022-12-18T07:05:30;102866.94;;;-6.62;100.00
57656;BME280;43482;53.334;6.744;2022-12-18T07:07:55;102860.09;;;-6.60;100.00
57656;BME280;43482;53.334;6.744;2022-12-18T07:10:21;102860.97;;;-6.58;100.00
57656;BME280;43482;53.334;6.744;2022-12-18T07:12:46;102860.13;;;-6.57;100.00
57656;BME280;43482;53.334;6.744;2022-12-18T07:15:11;102853.28;;;-6.55;100.00
57656;BME280;43482;53.334;6.744;2022-12-18T07:17:37;102850.75;;;-6.50;100.00
57656;BME280;43482;53.334;6.744;2022-12-18T07:20:02;102859.28;;;-6.51;100.00
57656;BME280;43482;53.334;6.744;2022-12-18T07:22:27;102852.44;;;-6.57;100.00
57656;BME280;43482;53.334;6.744;2022-12-18T07:24:53;102846.41;;;-6.60;100.00
57656;BME280;43482;53.334;6.744;2022-12-18T07:27:18;102845.56;;;-6.56;100.00
57656;BME280;43482;53.334;6.744;2022-12-18T07:29:43;102849.00;;;-6.51;100.00
57656;BME280;43482;53.334;6.744;2022-12-18T07:32:08;102847.31;;;-6.51;100.00
57656;BME280;43482;53.334;6.744;2022-12-18T07:34:34;102844.69;;;-6.55;100.00
57656;BME280;43482;53.334;6.744;2022-12-18T07:36:59;102842.16;;;-6.52;100.00
57656;BME280;43482;53.334;6.744;2022-12-18T07:39:25;102843.88;;;-6.54;100.00
57656;BME280;43482;53.334;6.744;2022-12-18T07:41:50;102840.44;;;-6.56;100.00
57656;BME280;43482;53.334;6.744;2022-12-18T07:44:34;102835.34;;;-6.50;100.00
57656;BME280;43482;53.334;6.744;2022-12-18T07:46:59;102840.47;;;-6.47;100.00
57656;BME280;43482;53.334;6.744;2022-12-18T07:49:24;102831.06;;;-6.48;100.00
57656;BME280;43482;53.334;6.744;2022-12-18T07:51:50;102840.47;;;-6.50;100.00
57656;BME280;43482;53.334;6.744;2022-12-18T07:54:15;102841.38;;;-6.39;100.00
57656;BME280;43482;53.334;6.744;2022-12-18T07:56:40;102847.38;;;-6.40;100.00
57656;BME280;43482;53.334;6.744;2022-12-18T07:59:06;102842.25;;;-6.40;100.00
57656;BME280;43482;53.334;6.744;2022-12-18T08:01:31;102852.53;;;-6.37;100.00
57656;BME280;43482;53.334;6.744;2022-12-18T08:03:57;102850.81;;;-6.35;100.00
57656;BME280;43482;53.334;6.744;2022-12-18T08:06:22;102843.94;;;-6.39;100.00
57656;BME280;43482;53.334;6.744;2022-12-18T08:08:47;102852.53;;;-6.34;100.00
57656;BME280;43482;53.334;6.744;2022-12-18T08:11:13;102850.81;;;-6.32;100.00
57656;BME280;43482;53.334;6.744;2022-12-18T08:13:38;102848.28;;;-6.29;100.00
57656;BME280;43482;53.334;6.744;2022-12-18T08:16:04;102847.44;;;-6.26;100.00
57656;BME280;43482;53.334;6.744;2022-12-18T08:18:34;102847.44;;;-6.28;100.00
57656;BME280;43482;53.334;6.744;2022-12-18T08:24:02;102856.88;;;-6.22;100.00
57656;BME280;43482;53.334;6.744;2022-12-18T08:26:29;102848.34;;;-6.15;100.00
57656;BME280;43482;53.334;6.744;2022-12-18T08:28:55;102845.78;;;-6.13;100.00
57656;BME280;43482;53.334;6.744;2022-12-18T08:31:21;102846.66;;;-6.04;100.00
57656;BME280;43482;53.334;6.744;2022-12-18T08:33:48;102844.09;;;-6.02;100.00
57656;BME280;43482;53.334;6.744;2022-12-18T08:36:13;102837.25;;;-6.00;100.00
57656;BME280;43482;53.334;6.744;2022-12-18T08:38:38;102839.84;;;-5.98;100.00
57656;BME280;43482;53.334;6.744;2022-12-18T08:41:05;102835.53;;;-5.95;100.00
57656;BME280;43482;53.334;6.744;2022-12-18T08:43:31;102838.97;;;-5.91;100.00
57656;BME280;43482;53.334;6.744;2022-12-18T08:46:16;102839.00;;;-5.78;100.00
57656;BME280;43482;53.334;6.744;2022-12-18T08:48:41;102844.13;;;-5.90;100.00
57656;BME280;43482;53.334;6.744;2022-12-18T08:51:07;102845.84;;;-5.75;100.00
57656;BME280;43482;53.334;6.744;2022-12-18T08:53:34;102845.03;;;-5.68;100.00
57656;BME280;43482;53.334;6.744;2022-12-18T08:55:59;102850.19;;;-5.68;100.00
57656;BME280;43482;53.334;6.744;2022-12-18T08:58:24;102857.03;;;-5.58;100.00
57656;BME280;43482;53.334;6.744;2022-12-18T09:00:50;102866.53;;;-5.44;100.00
57656;BME280;43482;53.334;6.744;2022-12-18T09:03:16;102873.38;;;-5.29;100.00
57656;BME280;43482;53.334;6.744;2022-12-18T09:05:42;102871.69;;;-5.24;100.00
57656;BME280;43482;53.334;6.744;2022-12-18T09:08:07;102867.41;;;-5.16;100.00
57656;BME280;43482;53.334;6.744;2022-12-18T09:10:32;102869.97;;;-5.01;100.00
57656;BME280;43482;53.334;6.744;2022-12-18T09:12:58;102867.41;;;-4.91;100.00
57656;BME280;43482;53.334;6.744;2022-12-18T09:15:23;102864.81;;;-4.94;100.00
57656;BME280;43482;53.334;6.744;2022-12-18T09:17:48;102852.81;;;-4.89;100.00
57656;BME280;43482;53.334;6.744;2022-12-18T09:20:15;102866.53;;;-4.78;100.00
57656;BME280;43482;53.334;6.744;2022-12-18T09:22:40;102871.66;;;-4.67;100.00
57656;BME280;43482;53.334;6.744;2022-12-18T09:25:06;102865.66;;;-4.68;100.00
57656;BME280;43482;53.334;6.744;2022-12-18T09:27:33;102868.16;;;-4.37;100.00
57656;BME280;43482;53.334;6.744;2022-12-18T09:29:58;102858.72;;;-4.47;100.00
57656;BME280;43482;53.334;6.744;2022-12-18T09:32:23;102859.56;;;-4.39;100.00
57656;BME280;43482;53.334;6.744;2022-12-18T09:34:48;102854.34;;;-4.21;100.00
57656;BME280;43482;53.334;6.744;2022-12-18T09:37:14;102862.81;;;-3.89;100.00
57656;BME280;43482;53.334;6.744;2022-12-18T09:39:39;102842.03;;;-3.66;100.00
57656;BME280;43482;53.334;6.744;2022-12-18T09:42:04;102829.97;;;-3.66;100.00
57656;BME280;43482;53.334;6.744;2022-12-18T09:44:41;102829.22;;;-3.83;100.00
57656;BME280;43482;53.334;6.744;2022-12-18T09:47:18;102824.94;;;-3.83;100.00
57656;BME280;43482;53.334;6.744;2022-12-18T09:49:49;102824.94;;;-3.83;100.00
57656;BME280;43482;53.334;6.744;2022-12-18T09:52:17;102819.78;;;-3.86;100.00
57656;BME280;43482;53.334;6.744;2022-12-18T09:54:46;102833.63;;;-3.99;100.00
57656;BME280;43482;53.334;6.744;2022-12-18T09:57:15;102824.19;;;-4.05;100.00
57656;BME280;43482;53.334;6.744;2022-12-18T09:59:42;102816.53;;;-4.22;100.00
57656;BME280;43482;53.334;6.744;2022-12-18T10:02:14;102818.25;;;-4.27;100.00
57656;BME280;43482;53.334;6.744;2022-12-18T10:04:39;102817.38;;;-4.14;100.00
57656;BME280;43482;53.334;6.744;2022-12-18T10:12:30;102819.75;;;-2.73;100.00
57656;BME280;43482;53.334;6.744;2022-12-18T10:15:02;102818.44;;;-1.69;100.00
57656;BME280;43482;53.334;6.744;2022-12-18T10:17:45;102816.97;;;-0.81;100.00
57656;BME280;43482;53.334;6.744;2022-12-18T10:25:26;102810.63;;;2.15;100.00
57656;BME280;43482;53.334;6.744;2022-12-18T10:27:58;102810.91;;;2.05;100.00
57656;BME280;43482;53.334;6.744;2022-12-18T10:30:25;102800.31;;;2.12;100.00
57656;BME280;43482;53.334;6.744;2022-12-18T10:32:51;102815.94;;;2.12;100.00
57656;BME280;43482;53.334;6.744;2022-12-18T10:35:21;102814.53;;;2.00;100.00
57656;BME280;43482;53.334;6.744;2022-12-18T10:38:00;102809.19;;;2.04;99.39
57656;BME280;43482;53.334;6.744;2022-12-18T10:40:25;102789.75;;;0.94;100.00
57656;BME280;43482;53.334;6.744;2022-12-18T10:45:34;102777.84;;;-0.25;100.00
57656;BME280;43482;53.334;6.744;2022-12-18T10:48:00;102771.22;;;-0.40;100.00
57656;BME280;43482;53.334;6.744;2022-12-18T10:50:27;102768.84;;;-0.51;100.00
57656;BME280;43482;53.334;6.744;2022-12-18T10:53:00;102759.94;;;-0.81;100.00
57656;BME280;43482;53.334;6.744;2022-12-18T10:55:38;102763.53;;;-1.35;100.00
57656;BME280;43482;53.334;6.744;2022-12-18T11:00:45;102762.59;;;-1.85;100.00
57656;BME280;43482;53.334;6.744;2022-12-18T11:03:28;102753.34;;;-2.01;100.00
57656;BME280;43482;53.334;6.744;2022-12-18T11:06:01;102739.09;;;-2.30;100.00
57656;BME280;43482;53.334;6.744;2022-12-18T11:08:26;102735.22;;;-2.63;100.00
57656;BME280;43482;53.334;6.744;2022-12-18T11:10:51;102735.16;;;-2.60;100.00
57656;BME280;43482;53.334;6.744;2022-12-18T11:13:21;102734.19;;;-2.52;100.00
57656;BME280;43482;53.334;6.744;2022-12-18T11:15:47;102718.88;;;-2.67;100.00
57656;BME280;43482;53.334;6.744;2022-12-18T11:18:30;102714.53;;;-2.65;100.00
57656;BME280;43482;53.334;6.744;2022-12-18T11:20:57;102728.25;;;-2.58;100.00
57656;BME280;43482;53.334;6.744;2022-12-18T11:23:24;102727.34;;;-2.56;100.00
57656;BME280;43482;53.334;6.744;2022-12-18T11:25:51;102717.78;;;-2.49;100.00
57656;BME280;43482;53.334;6.744;2022-12-18T11:31:14;102710.91;;;-2.50;100.00
57656;BME280;43482;53.334;6.744;2022-12-18T11:33:56;102711.84;;;-2.56;100.00
57656;BME280;43482;53.334;6.744;2022-12-18T11:36:22;102734.19;;;-2.52;100.00
57656;BME280;43482;53.334;6.744;2022-12-18T11:38:48;102733.50;;;-2.64;100.00
57656;BME280;43482;53.334;6.744;2022-12-18T11:41:24;102731.63;;;-2.53;100.00
57656;BME280;43482;53.334;6.744;2022-12-18T11:44:15;102735.06;;;-2.53;100.00
57656;BME280;43482;53.334;6.744;2022-12-18T11:46:48;102731.53;;;-2.47;100.00
57656;BME280;43482;53.334;6.744;2022-12-18T11:49:15;102723.78;;;-2.47;100.00
57656;BME280;43482;53.334;6.744;2022-12-18T11:51:46;102710.78;;;-2.42;100.00
57656;BME280;43482;53.334;6.744;2022-12-18T11:54:14;102704.75;;;-2.41;100.00
57656;BME280;43482;53.334;6.744;2022-12-18T11:56:51;102693.66;;;-2.50;100.00
57656;BME280;43482;53.334;6.744;2022-12-18T12:01:55;102682.50;;;-2.53;100.00
57656;BME280;43482;53.334;6.744;2022-12-18T12:12:20;102673.06;;;-2.57;100.00
57656;BME280;43482;53.334;6.744;2022-12-18T12:19:54;102651.63;;;-2.64;100.00
57656;BME280;43482;53.334;6.744;2022-12-18T12:24:53;102639.38;;;-2.50;100.00
57656;BME280;43482;53.334;6.744;2022-12-18T12:30:08;102632.53;;;-2.54;100.00
57656;BME280;43482;53.334;6.744;2022-12-18T12:37:38;102620.44;;;-2.52;100.00
57656;BME280;43482;53.334;6.744;2022-12-18T12:40:12;102623.81;;;-2.46;100.00
57656;BME280;43482;53.334;6.744;2022-12-18T12:42:41;102611.75;;;-2.47;100.00
57656;BME280;43482;53.334;6.744;2022-12-18T12:45:30;102606.50;;;-2.41;100.00
57656;BME280;43482;53.334;6.744;2022-12-18T12:47:59;102609.03;;;-2.40;100.00
57656;BME280;43482;53.334;6.744;2022-12-18T12:50:26;102599.44;;;-2.30;100.00
57656;BME280;43482;53.334;6.744;2022-12-18T12:52:53;102604.69;;;-2.36;100.00
57656;BME280;43482;53.334;6.744;2022-12-18T12:55:24;102578.75;;;-2.30;100.00
57656;BME280;43482;53.334;6.744;2022-12-18T13:00:18;102567.53;;;-2.31;100.00
57656;BME280;43482;53.334;6.744;2022-12-18T13:07:49;102560.63;;;-2.30;100.00
57656;BME280;43482;53.334;6.744;2022-12-18T13:15:38;102549.19;;;-2.17;100.00
57656;BME280;43482;53.334;6.744;2022-12-18T13:20:33;102548.28;;;-2.13;100.00
57656;BME280;43482;53.334;6.744;2022-12-18T13:22:59;102529.28;;;-2.12;100.00
57656;BME280;43482;53.334;6.744;2022-12-18T13:25:31;102536.13;;;-2.09;100.00
57656;BME280;43482;53.334;6.744;2022-12-18T13:28:19;102531.75;;;-2.05;100.00
57656;BME280;43482;53.334;6.744;2022-12-18T13:48:31;102502.50;;;-2.09;100.00
57656;BME280;43482;53.334;6.744;2022-12-18T13:53:26;102493.97;;;-2.16;100.00
57656;BME280;43482;53.334;6.744;2022-12-18T13:55:52;102508.75;;;-2.22;100.00
57656;BME280;43482;53.334;6.744;2022-12-18T13:58:18;102500.13;;;-2.20;100.00
57656;BME280;43482;53.334;6.744;2022-12-18T14:00:43;102501.06;;;-2.25;100.00
57656;BME280;43482;53.334;6.744;2022-12-18T14:03:19;102509.00;;;-2.35;100.00
57656;BME280;43482;53.334;6.744;2022-12-18T14:05:45;102501.06;;;-2.24;100.00
57656;BME280;43482;53.334;6.744;2022-12-18T14:08:16;102501.16;;;-2.30;100.00
57656;BME280;43482;53.334;6.744;2022-12-18T14:10:46;102503.75;;;-2.32;100.00
57656;BME280;43482;53.334;6.744;2022-12-18T14:13:15;102492.66;;;-2.38;100.00
57656;BME280;43482;53.334;6.744;2022-12-18T14:15:43;102490.22;;;-2.46;100.00
57656;BME280;43482;53.334;6.744;2022-12-18T14:18:15;102486.75;;;-2.46;100.00
57656;BME280;43482;53.334;6.744;2022-12-18T14:20:44;102494.69;;;-2.56;100.00
57656;BME280;43482;53.334;6.744;2022-12-18T14:26:20;102495.59;;;-2.60;100.00
57656;BME280;43482;53.334;6.744;2022-12-18T14:28:46;102484.56;;;-2.70;100.00
57656;BME280;43482;53.334;6.744;2022-12-18T14:31:22;102485.41;;;-2.67;100.00
57656;BME280;43482;53.334;6.744;2022-12-18T14:33:48;102474.34;;;-2.76;100.00
57656;BME280;43482;53.334;6.744;2022-12-18T14:36:15;102474.34;;;-2.79;100.00
57656;BME280;43482;53.334;6.744;2022-12-18T14:38:41;102477.81;;;-2.78;100.00
57656;BME280;43482;53.334;6.744;2022-12-18T14:41:10;102474.34;;;-2.77;100.00